Boswell, Canada
Current Conditions -  °F | °C
As of 12:00 PM on Saturday 25 Oct 2014 (Local Time) from CYCG Reporting Station
Broken Clouds Broken Clouds  
Wind Chill: 52°   Ceiling: 13000
Heat Index: 52°   Visibility: 15mi
Dew Point: 41°   Wind: 13mph
Humidity: 67%   Direction: 350°N
Pressure: 29.64"   Gusts: NA
Location:  49.47°N, 116.77°W
Report Text: CYCG 251900Z 35011KT 15SM BKN130 BKN270 11/05 A2964 RMK AC5CI2 PRESFR SLP045 DENSITY ALT 1800FT
Loading
Personal Weather Stations






























Interactive Weather Map
Tropical Storm Tracking
New forecast layout! Learn more

10-Day Weather Forecast

Advertisements
Track Severe Weather on mobile